Time;durP1;ratioP1;P1;durP2;ratioP2;P2;SDS_P1;SDS_P2;PMS_P1;PMS_P2;Temp;Humidity;BMP_temperature;BMP_pressure;BME280_temperature;BME280_humidity;BME280_pressure;Samples;Min_cycle;Max_cycle;Signal;HPM_P1;HPM_P2
2021/05/11 00:00:27;;;;;;;19.20;7.15;;;;;;;17.33;80.61;100252.19;5063998;28;20048;-76
2021/05/11 00:03:32;;;;;;;18.33;6.40;;;;;;;17.30;80.71;100263.44;5064954;28;20048;-77
2021/05/11 00:06:36;;;;;;;15.23;6.07;;;;;;;17.26;80.67;100267.50;5078176;28;20051;-76
2021/05/11 00:09:41;;;;;;;12.27;6.07;;;;;;;17.30;80.18;100282.44;5069433;28;20158;-77
2021/05/11 00:12:45;;;;;;;16.20;6.43;;;;;;;17.37;80.14;100286.09;5066496;28;20044;-78
2021/05/11 00:15:50;;;;;;;18.92;6.65;;;;;;;17.34;79.83;100281.03;5066458;28;20494;-76
2021/05/11 00:18:55;;;;;;;15.65;5.90;;;;;;;17.29;79.53;100271.75;5064859;28;20047;-77
2021/05/11 00:22:00;;;;;;;15.15;6.72;;;;;;;17.19;79.90;100258.41;5075313;28;20059;-75
2021/05/11 00:25:04;;;;;;;13.27;6.38;;;;;;;17.10;79.93;100273.06;5069691;28;20060;-75
2021/05/11 00:28:09;;;;;;;18.00;7.28;;;;;;;17.17;80.10;100260.47;5065431;28;20056;-77
2021/05/11 00:31:14;;;;;;;13.45;6.43;;;;;;;17.13;79.94;100248.28;5065514;28;20048;-75
2021/05/11 00:34:18;;;;;;;13.30;6.68;;;;;;;17.11;80.16;100236.75;5063526;28;20079;-77
2021/05/11 00:37:23;;;;;;;15.80;6.72;;;;;;;17.03;80.81;100238.69;5066627;28;20400;-74
2021/05/11 00:40:27;;;;;;;13.48;6.50;;;;;;;17.00;81.03;100244.47;5066156;28;20055;-76
2021/05/11 00:43:32;;;;;;;16.58;6.95;;;;;;;17.00;81.15;100263.44;5078163;28;20056;-75
2021/05/11 00:46:36;;;;;;;16.50;6.70;;;;;;;16.98;81.31;100252.78;5066014;28;20043;-75
2021/05/11 00:49:40;;;;;;;15.80;6.75;;;;;;;16.96;81.68;100248.56;5065295;28;20400;-74
2021/05/11 00:52:45;;;;;;;13.70;6.95;;;;;;;17.00;81.77;100253.44;5065589;28;20044;-76
2021/05/11 00:55:50;;;;;;;15.93;6.97;;;;;;;16.84;82.31;100264.38;5065723;28;20411;-75
2021/05/11 00:58:54;;;;;;;21.35;8.13;;;;;;;16.81;82.43;100281.81;5065458;28;20043;-75
2021/05/11 01:02:03;;;;;;;14.30;7.15;;;;;;;16.78;83.11;100274.06;5065153;28;20051;-76
2021/05/11 01:05:08;;;;;;;11.57;8.07;;;;;;;16.81;83.11;100278.28;5076682;28;20044;-74
2021/05/11 01:08:16;;;;;;;18.25;7.93;;;;;;;16.80;82.71;100276.59;5065294;28;20048;-74
2021/05/11 01:11:20;;;;;;;15.68;7.07;;;;;;;16.82;82.83;100271.84;5065200;28;20044;-74
2021/05/11 01:14:28;;;;;;;17.13;7.53;;;;;;;16.82;82.76;100258.28;5065695;28;20044;-75
2021/05/11 01:17:36;;;;;;;21.50;8.90;;;;;;;16.86;82.46;100240.66;5065098;28;20043;-76
2021/05/11 01:20:44;;;;;;;12.70;7.40;;;;;;;16.77;82.90;100252.53;5062823;28;20064;-76
2021/05/11 01:47:26;;;;;;;16.27;7.22;;;;;;;16.83;82.50;100273.53;5066611;28;20048;-75
2021/05/11 01:50:44;;;;;;;14.93;7.40;;;;;;;16.72;83.55;100271.19;5072303;28;20498;-76
2021/05/11 01:54:09;;;;;;;16.83;7.32;;;;;;;16.73;83.26;100271.03;5064224;28;20052;-76
2021/05/11 02:23:58;;;;;;;18.05;8.45;;;;;;;17.06;81.87;100254.63;5080283;28;20047;-75
2021/05/11 02:27:04;;;;;;;13.45;7.18;;;;;;;17.09;81.81;100260.50;5064327;28;20048;-74
2021/05/11 02:30:10;;;;;;;13.88;7.45;;;;;;;17.15;81.82;100270.66;5064021;28;20051;-76
2021/05/11 02:33:14;;;;;;;15.23;8.40;;;;;;;17.09;82.30;100281.34;5077281;28;20070;-76
2021/05/11 02:36:18;;;;;;;18.13;8.30;;;;;;;17.04;82.20;100260.19;5074509;28;20043;-75
2021/05/11 02:39:22;;;;;;;14.25;8.40;;;;;;;17.07;82.04;100235.44;5085161;28;20051;-76
2021/05/11 02:42:27;;;;;;;15.48;8.70;;;;;;;17.11;81.93;100211.53;5074592;28;20051;-76
2021/05/11 02:45:33;;;;;;;19.27;8.55;;;;;;;17.14;81.95;100201.13;5053552;28;20056;-75
2021/05/11 02:48:37;;;;;;;14.18;7.85;;;;;;;17.17;81.79;100198.06;5053633;28;20056;-75
2021/05/11 02:51:41;;;;;;;14.30;7.45;;;;;;;17.15;81.71;100167.56;5053735;28;20112;-77
2021/05/11 02:54:46;;;;;;;16.67;7.72;;;;;;;17.00;82.89;100158.53;5071581;28;20426;-76
2021/05/11 02:57:51;;;;;;;18.90;8.02;;;;;;;16.97;82.90;100180.59;5079227;28;20529;-76
2021/05/11 03:00:56;;;;;;;20.13;8.88;;;;;;;16.98;82.86;100182.28;5093751;28;20051;-75
2021/05/11 03:04:00;;;;;;;16.60;7.95;;;;;;;16.95;83.09;100190.78;5093426;28;20048;-75
2021/05/11 03:07:04;;;;;;;15.63;7.85;;;;;;;16.91;83.08;100189.44;5096659;28;20047;-74
2021/05/11 03:10:11;;;;;;;15.80;9.07;;;;;;;16.84;82.99;100193.88;5097740;28;20502;-74
2021/05/11 03:13:16;;;;;;;19.63;9.32;;;;;;;16.77;83.65;100190.19;5096429;28;20415;-77
2021/05/11 03:16:21;;;;;;;12.85;7.88;;;;;;;16.79;83.49;100202.53;5092146;28;20052;-74
2021/05/11 03:19:26;;;;;;;16.70;8.75;;;;;;;16.69;84.20;100201.09;5057101;28;20064;-74
2021/05/11 03:22:33;;;;;;;16.80;9.55;;;;;;;16.78;84.06;100200.03;5057273;28;20384;-75
2021/05/11 03:25:37;;;;;;;20.13;9.57;;;;;;;16.78;83.65;100213.59;5057270;28;20068;-76
2021/05/11 03:28:42;;;;;;;17.20;9.75;;;;;;;16.71;83.93;100231.59;5057276;28;20052;-76
2021/05/11 03:31:46;;;;;;;18.08;9.70;;;;;;;16.66;84.23;100236.69;5057453;28;20522;-76
2021/05/11 03:34:50;;;;;;;13.52;9.18;;;;;;;16.66;84.24;100220.44;5077685;28;20513;-77
2021/05/11 03:37:56;;;;;;;19.75;9.55;;;;;;;16.62;84.81;100221.78;5081729;28;20394;-76
2021/05/11 03:41:00;;;;;;;18.45;9.35;;;;;;;16.62;84.71;100229.91;5077564;28;20047;-74
2021/05/11 03:44:27;;;;;;;16.75;9.75;;;;;;;16.56;85.12;100239.63;5095005;28;20062;-76
2021/05/11 03:47:38;;;;;;;21.80;9.13;;;;;;;16.54;85.34;100233.50;5095782;28;20082;-77
2021/05/11 03:50:43;;;;;;;14.60;9.25;;;;;;;16.51;85.57;100224.84;5093651;28;20390;-74
2021/05/11 03:53:47;;;;;;;17.05;9.20;;;;;;;16.53;85.56;100225.56;5084520;28;20048;-75
2021/05/11 03:56:52;;;;;;;18.25;9.20;;;;;;;16.56;85.47;100227.91;5084022;28;20059;-76
2021/05/11 03:59:56;;;;;;;15.30;9.60;;;;;;;16.50;85.23;100226.72;5096023;28;20055;-74
2021/05/11 04:03:00;;;;;;;24.90;10.55;;;;;;;16.53;85.21;100234.53;5096628;28;20378;-76
2021/05/11 04:06:05;;;;;;;16.05;9.00;;;;;;;16.57;85.12;100237.72;5093690;28;20055;-76
2021/05/11 04:09:20;;;;;;;17.52;9.32;;;;;;;16.62;84.88;100236.19;5084012;28;20098;-74
2021/05/11 04:13:01;;;;;;;15.95;9.60;;;;;;;16.62;84.83;100233.47;5090220;28;20545;-76
2021/05/11 04:19:12;;;;;;;24.70;9.43;;;;;;;16.64;84.78;100223.28;5079892;28;20043;-75
2021/05/11 04:22:16;;;;;;;15.77;9.90;;;;;;;16.66;84.43;100215.00;5080901;28;20047;-75
2021/05/11 04:25:20;;;;;;;28.45;11.38;;;;;;;16.66;84.99;100220.44;5094793;28;20051;-75
2021/05/11 04:28:25;;;;;;;16.42;9.93;;;;;;;16.64;84.94;100228.72;5075483;28;20379;-74
2021/05/11 04:31:33;;;;;;;15.55;10.00;;;;;;;16.67;84.36;100231.06;5075509;28;20048;-72
2021/05/11 04:34:38;;;;;;;20.20;10.95;;;;;;;16.56;85.03;100226.06;5075038;28;20068;-75
2021/05/11 04:37:43;;;;;;;24.45;10.65;;;;;;;16.56;85.74;100225.22;5083063;28;20051;-73
2021/05/11 04:40:49;;;;;;;18.15;11.07;;;;;;;16.48;86.15;100222.50;5089259;28;20047;-73
2021/05/11 04:43:53;;;;;;;19.85;11.43;;;;;;;16.45;86.26;100217.41;5079051;28;20052;-73
2021/05/11 04:47:07;;;;;;;21.15;11.50;;;;;;;16.41;86.74;100207.97;5054682;28;20496;-74
2021/05/11 04:50:17;;;;;;;17.38;11.70;;;;;;;16.38;87.01;100202.88;5071773;28;20360;-74
2021/05/11 04:53:22;;;;;;;18.55;12.15;;;;;;;16.20;87.62;100182.31;5073772;28;20071;-75
2021/05/11 04:56:27;;;;;;;18.00;12.48;;;;;;;16.17;88.33;100166.41;5073959;28;20060;-74
2021/05/11 04:59:31;;;;;;;21.52;13.18;;;;;;;16.06;89.70;100166.78;5078002;28;20395;-77
2021/05/11 05:02:38;;;;;;;22.17;13.43;;;;;;;16.04;89.62;100167.97;5079953;28;20407;-77
2021/05/11 05:05:46;;;;;;;32.65;29.17;;;;;;;16.06;90.10;100174.06;5074713;28;20048;-78
2021/05/11 05:08:50;;;;;;;22.35;13.68;;;;;;;15.98;90.06;100176.78;5074868;28;20048;-75
2021/05/11 05:11:54;;;;;;;19.23;12.25;;;;;;;15.97;90.01;100191.34;5087916;28;20066;-75
2021/05/11 05:14:59;;;;;;;18.75;13.07;;;;;;;15.97;90.09;100196.78;5094264;28;20070;-75
2021/05/11 05:18:04;;;;;;;20.23;12.48;;;;;;;15.95;90.30;100175.28;5091110;28;20510;-74
2021/05/11 05:21:09;;;;;;;21.73;14.23;;;;;;;15.93;90.44;100187.28;5055219;28;20051;-76
2021/05/11 05:24:16;;;;;;;21.33;13.38;;;;;;;15.94;90.28;100202.53;5094892;28;20136;-77
2021/05/11 05:27:23;;;;;;;20.27;14.20;;;;;;;15.98;91.03;100198.44;5093887;28;20043;-75
2021/05/11 05:30:28;;;;;;;17.80;14.10;;;;;;;15.91;91.16;100198.31;5094382;28;20413;-75
2021/05/11 05:33:40;;;;;;;17.35;13.55;;;;;;;15.92;91.22;100205.41;5094839;28;20044;-74
2021/05/11 05:36:44;;;;;;;18.85;13.30;;;;;;;15.98;91.27;100218.25;5105202;28;20055;-76
2021/05/11 05:39:52;;;;;;;17.20;13.00;;;;;;;15.96;91.38;100205.91;5094472;28;20461;-74
2021/05/11 05:42:57;;;;;;;22.98;13.77;;;;;;;15.96;90.92;100214.88;5093909;28;20048;-77
2021/05/11 05:46:02;;;;;;;22.63;14.05;;;;;;;15.93;91.63;100217.91;5090427;28;20047;-77
2021/05/11 05:49:08;;;;;;;21.13;14.52;;;;;;;15.99;91.68;100211.81;5076055;28;20056;-76
2021/05/11 05:52:21;;;;;;;20.10;14.10;;;;;;;15.99;91.51;100219.09;5084912;28;20067;-78
2021/05/11 05:55:25;;;;;;;23.10;14.52;;;;;;;15.95;92.66;100209.66;5069700;28;20063;-77
2021/05/11 05:58:31;;;;;;;22.88;14.93;;;;;;;15.98;92.73;100196.59;5073018;28;20368;-77
2021/05/11 06:01:37;;;;;;;25.75;16.23;;;;;;;15.91;93.81;100189.31;5074048;28;20047;-75
2021/05/11 06:04:41;;;;;;;21.65;16.50;;;;;;;15.80;94.85;100185.13;5073715;28;20066;-77
2021/05/11 06:07:46;;;;;;;22.83;17.45;;;;;;;15.74;95.45;100184.97;5075930;28;20071;-76
2021/05/11 06:10:54;;;;;;;22.25;17.10;;;;;;;15.87;95.29;100188.00;5065734;28;20041;-75
2021/05/11 06:17:16;;;;;;;20.80;17.70;;;;;;;15.80;95.73;100163.47;5053420;28;20049;-78
2021/05/11 06:20:21;;;;;;;23.13;18.58;;;;;;;15.69;96.07;100165.69;5053254;28;20068;-78
2021/05/11 06:23:25;;;;;;;23.17;20.35;;;;;;;15.68;96.60;100155.91;5052681;28;20048;-76
2021/05/11 06:26:29;;;;;;;24.27;21.10;;;;;;;15.70;97.24;100160.13;5053336;28;20051;-78
2021/05/11 06:29:40;;;;;;;25.23;20.15;;;;;;;15.71;97.45;100142.00;5059981;28;20048;-77
2021/05/11 06:32:45;;;;;;;27.77;20.15;;;;;;;15.68;97.32;100137.78;5072166;28;20044;-75
2021/05/11 06:35:52;;;;;;;27.27;18.15;;;;;;;15.58;97.67;100116.31;5084264;28;20426;-75
2021/05/11 06:38:58;;;;;;;24.63;19.20;;;;;;;15.48;98.00;100131.09;5055025;28;20488;-77
2021/05/11 06:42:03;;;;;;;25.23;19.58;;;;;;;15.50;98.19;100126.34;5052752;28;20388;-75
2021/05/11 06:48:44;;;;;;;32.17;24.58;;;;;;;15.49;98.49;100116.53;5053250;28;20048;-76
2021/05/11 06:55:21;;;;;;;27.05;21.85;;;;;;;15.44;98.93;100118.88;5048301;28;20396;-73
2021/05/11 06:58:25;;;;;;;27.98;21.13;;;;;;;15.50;98.88;100119.03;5062031;28;20411;-75
2021/05/11 07:01:30;;;;;;;24.90;21.00;;;;;;;15.54;98.68;100128.53;5089181;28;20051;-75
2021/05/11 07:04:34;;;;;;;30.48;19.35;;;;;;;15.63;98.84;100120.41;5089752;28;20047;-78
2021/05/11 07:07:41;;;;;;;25.77;17.40;;;;;;;15.77;98.15;100122.38;5089976;28;20055;-76
2021/05/11 07:10:50;;;;;;;25.17;17.23;;;;;;;15.84;96.84;100124.22;5067905;28;20049;-73
2021/05/11 07:13:55;;;;;;;19.05;15.30;;;;;;;15.97;96.30;100115.56;5072002;28;20044;-77
2021/05/11 07:16:59;;;;;;;21.90;17.17;;;;;;;15.86;95.65;100124.88;5071401;28;20376;-74
2021/05/11 07:20:04;;;;;;;22.67;15.85;;;;;;;15.98;95.26;100119.94;5080853;28;20400;-76
2021/05/11 07:23:09;;;;;;;23.08;16.35;;;;;;;16.03;94.85;100123.81;5084259;28;20162;-76
2021/05/11 07:29:44;;;;;;;24.80;18.60;;;;;;;15.93;94.61;100119.63;5052153;28;20049;-80
2021/05/11 07:32:48;;;;;;;;;;;;;;;15.83;95.12;100109.00;5055887;28;20049;-76
2021/05/11 07:35:53;;;;;;;21.55;17.42;;;;;;;15.87;94.77;100104.09;5085866;28;20275;-78
2021/05/11 07:38:57;;;;;;;19.88;17.73;;;;;;;15.85;95.16;100104.25;5076847;28;20048;-76
2021/05/11 07:42:01;;;;;;;20.80;17.17;;;;;;;15.94;94.88;100078.00;5083296;28;20048;-74
2021/05/11 07:45:07;;;;;;;25.20;16.20;;;;;;;16.13;94.12;100072.16;5078244;28;20063;-74
2021/05/11 07:48:31;;;;;;;20.58;14.52;;;;;;;16.24;93.17;100052.81;5066132;28;20048;-74
2021/05/11 08:02:03;;;;;;;18.35;12.15;;;;;;;16.38;91.49;100026.81;5070075;28;20056;-74
2021/05/11 08:15:19;;;;;;;19.10;12.88;;;;;;;16.39;90.59;100021.22;5074994;28;20056;-73
2021/05/11 08:18:30;;;;;;;16.73;13.27;;;;;;;16.40;91.20;100016.63;5074297;28;20045;-73
2021/05/11 08:28:20;;;;;;;18.88;12.90;;;;;;;16.47;91.59;100006.75;5074966;28;20063;-74
2021/05/11 08:31:25;;;;;;;19.17;12.52;;;;;;;16.53;91.27;99985.25;5074979;28;20044;-75
2021/05/11 08:34:29;;;;;;;22.58;11.80;;;;;;;16.53;91.08;99977.13;5074254;28;20043;-75
2021/05/11 08:37:34;;;;;;;19.55;12.57;;;;;;;16.44;91.72;99997.16;5074281;28;20048;-74
2021/05/11 08:40:39;;;;;;;17.75;11.85;;;;;;;16.50;91.77;100003.69;5075052;28;20051;-75
2021/05/11 08:43:45;;;;;;;19.90;12.55;;;;;;;16.59;91.61;99995.34;5080916;28;20494;-74
2021/05/11 08:46:49;;;;;;;18.10;11.10;;;;;;;16.78;90.88;100008.41;5085253;28;20059;-75
2021/05/11 08:49:54;;;;;;;15.52;11.48;;;;;;;16.90;90.51;99998.81;5074663;28;20404;-74
2021/05/11 08:53:18;;;;;;;17.25;11.07;;;;;;;17.03;90.52;100014.47;5074265;28;20110;-74
2021/05/11 09:06:46;;;;;;;15.65;8.02;;;;;;;17.07;88.29;100028.47;5054375;28;20052;-77
2021/05/11 09:23:52;;;;;;;16.10;9.13;;;;;;;17.08;89.10;100012.03;5054209;28;20040;-77
2021/05/11 09:27:37;;;;;;;20.00;9.32;;;;;;;17.19;88.94;100008.00;5064387;28;20056;-76
2021/05/11 09:30:56;;;;;;;15.55;8.90;;;;;;;17.29;88.44;100009.44;5074183;28;20048;-77
2021/05/11 09:34:19;;;;;;;14.02;8.95;;;;;;;17.31;87.51;99999.22;5073926;28;20399;-78
2021/05/11 09:57:57;;;;;;;13.38;6.75;;;;;;;17.24;83.91;100003.72;5059370;28;20063;-76
2021/05/11 10:39:44;;;;;;;10.57;6.18;;;;;;;17.57;83.23;100000.66;5073502;28;20051;-77
2021/05/11 10:46:42;;;;;;;8.25;4.20;;;;;;;17.38;81.46;99993.91;5072804;28;20412;-77
2021/05/11 10:49:46;;;;;;;8.35;3.72;;;;;;;17.32;80.40;99995.50;5073335;28;20052;-76
2021/05/11 10:52:51;;;;;;;6.65;3.97;;;;;;;17.25;80.65;99985.56;5071834;28;20067;-77
2021/05/11 10:56:16;;;;;;;8.57;4.32;;;;;;;17.20;80.97;99979.88;5057235;28;20510;-77
2021/05/11 11:05:37;;;;;;;9.02;4.63;;;;;;;17.10;81.37;99968.44;5072895;28;20075;-75
2021/05/11 11:08:42;;;;;;;10.05;5.13;;;;;;;16.99;81.46;99967.03;5072800;28;20526;-77
2021/05/11 11:11:48;;;;;;;8.50;4.55;;;;;;;16.96;82.39;99972.00;5072719;28;20056;-78
2021/05/11 11:14:53;;;;;;;7.03;4.70;;;;;;;17.06;82.99;99978.00;5072461;28;20395;-76
2021/05/11 11:17:58;;;;;;;7.95;5.38;;;;;;;16.99;83.45;99980.56;5073009;28;20056;-76
2021/05/11 11:24:27;;;;;;;9.07;6.10;;;;;;;17.01;83.15;99980.41;5052842;28;20056;-76
2021/05/11 11:27:33;;;;;;;11.02;5.90;;;;;;;17.06;83.12;99983.41;5067319;28;20392;-76
2021/05/11 11:30:38;;;;;;;12.73;6.13;;;;;;;16.94;83.69;99983.00;5056523;28;20056;-75
2021/05/11 11:33:42;;;;;;;11.80;6.80;;;;;;;17.02;82.60;99984.78;5056490;28;20072;-76
2021/05/11 11:37:00;;;;;;;10.00;6.43;;;;;;;17.10;81.26;99969.28;5058767;28;20055;-76
2021/05/11 11:40:08;;;;;;;11.48;6.70;;;;;;;17.19;80.78;99970.88;5073306;28;20115;-75
2021/05/11 11:43:23;;;;;;;12.38;6.07;;;;;;;17.31;81.76;99963.94;5074927;28;20055;-75
2021/05/11 11:46:29;;;;;;;10.55;6.88;;;;;;;17.50;81.52;99973.41;5076104;28;20063;-74
2021/05/11 11:49:38;;;;;;;13.65;6.93;;;;;;;17.43;81.31;99962.44;5076203;28;20051;-74
2021/05/11 11:59:14;;;;;;;9.35;6.68;;;;;;;17.30;80.52;99970.44;5075643;28;20059;-74
2021/05/11 12:02:19;;;;;;;11.52;7.15;;;;;;;17.27;81.33;99965.38;5076098;28;20051;-76
2021/05/11 12:05:28;;;;;;;8.10;6.85;;;;;;;17.43;80.34;99954.31;5075290;28;20056;-74
2021/05/11 12:08:34;;;;;;;11.60;7.60;;;;;;;17.61;80.54;99956.66;5075046;28;20387;-75
2021/05/11 12:11:39;;;;;;;9.95;7.75;;;;;;;17.44;80.29;99958.72;5092389;28;20055;-73
2021/05/11 12:14:43;;;;;;;9.93;6.97;;;;;;;17.45;79.58;99946.81;5094989;28;20059;-76
2021/05/11 12:21:17;;;;;;;16.73;8.00;;;;;;;17.34;80.99;99938.31;5054606;28;20063;-77
2021/05/11 12:24:29;;;;;;;15.95;9.20;;;;;;;17.21;81.82;99938.97;5053544;28;20067;-76
2021/05/11 12:27:38;;;;;;;10.25;9.15;;;;;;;17.04;82.50;99939.34;5083219;28;20399;-76
2021/05/11 12:30:47;;;;;;;13.35;8.95;;;;;;;17.09;83.56;99926.91;5074807;28;20056;-76
2021/05/11 12:33:51;;;;;;;15.10;9.43;;;;;;;17.17;84.11;99915.97;5075055;28;20052;-76
2021/05/11 12:36:59;;;;;;;15.93;10.15;;;;;;;17.34;83.75;99911.19;5074842;28;20052;-77
2021/05/11 12:40:12;;;;;;;13.20;10.05;;;;;;;17.40;83.59;99919.44;5074360;28;20052;-77
2021/05/11 12:43:46;;;;;;;13.23;10.55;;;;;;;17.23;84.43;99912.50;5073147;28;20059;-75
2021/05/11 12:46:57;;;;;;;14.95;11.23;;;;;;;17.35;84.91;99918.31;5085327;28;20051;-76
2021/05/11 12:50:13;;;;;;;19.88;11.07;;;;;;;17.40;84.98;99921.31;5072631;28;20147;-77
2021/05/11 12:53:28;;;;;;;16.20;11.65;;;;;;;17.45;85.66;99903.41;5053965;28;20515;-77
2021/05/11 12:56:49;;;;;;;16.90;12.27;;;;;;;17.36;85.57;99912.69;5087135;28;20047;-77
2021/05/11 13:03:32;;;;;;;24.83;13.15;;;;;;;17.40;87.04;99905.88;5074908;28;20042;-76
2021/05/11 13:20:04;;;;;;;22.17;15.00;;;;;;;17.13;89.90;99882.13;5073971;28;20047;-74
2021/05/11 13:26:33;;;;;;;21.42;15.52;;;;;;;17.09;91.65;99899.78;5073267;28;20506;-77
2021/05/11 13:29:48;;;;;;;18.50;16.02;;;;;;;17.05;92.34;99895.78;5073553;28;20043;-76
2021/05/11 13:36:03;;;;;;;17.48;15.50;;;;;;;17.32;92.98;99940.38;5074401;28;20063;-77
2021/05/11 13:39:09;;;;;;;16.30;11.85;;;;;;;17.41;92.35;99928.41;5072760;28;20071;-78
2021/05/11 13:42:14;;;;;;;13.32;11.43;;;;;;;17.41;91.26;99931.09;5073851;28;20499;-76
2021/05/11 13:45:18;;;;;;;13.45;10.52;;;;;;;17.51;91.22;99931.66;5071312;28;20068;-74
2021/05/11 13:48:26;;;;;;;12.95;10.57;;;;;;;17.63;91.09;99929.34;5072863;28;20044;-76
2021/05/11 13:51:31;;;;;;;8.77;7.15;;;;;;;17.82;89.53;99924.16;5072896;28;20055;-72
2021/05/11 13:54:35;;;;;;;8.00;5.47;;;;;;;17.89;87.80;99908.78;5071636;28;20052;-75
2021/05/11 14:04:27;;;;;;;8.70;3.78;;;;;;;17.85;87.83;99931.09;5063718;28;20346;-74
2021/05/11 14:07:32;;;;;;;6.68;3.95;;;;;;;17.78;87.07;99932.84;5070879;28;20051;-73
2021/05/11 14:10:37;;;;;;;4.50;2.90;;;;;;;17.60;87.35;99927.88;5072964;28;20043;-74
2021/05/11 14:13:41;;;;;;;5.80;3.97;;;;;;;17.58;87.43;99919.03;5072907;28;20051;-76
2021/05/11 14:16:46;;;;;;;4.63;3.50;;;;;;;17.58;87.30;99913.63;5073722;28;20494;-74
2021/05/11 14:19:51;;;;;;;4.75;3.20;;;;;;;17.62;87.36;99914.94;5072729;28;20411;-76
2021/05/11 14:22:56;;;;;;;3.95;3.10;;;;;;;17.62;86.96;99911.38;5060259;28;20151;-76
2021/05/11 14:26:01;;;;;;;8.10;3.55;;;;;;;17.62;87.62;99911.38;5072563;28;20064;-74
2021/05/11 14:29:06;;;;;;;7.03;3.72;;;;;;;17.61;87.34;99912.38;5072889;28;20114;-73
2021/05/11 14:32:12;;;;;;;6.78;3.63;;;;;;;17.59;87.78;99904.44;5090354;28;20169;-76
2021/05/11 14:35:17;;;;;;;6.07;3.55;;;;;;;17.59;87.44;99906.31;5092841;28;20050;-75
2021/05/11 14:38:22;;;;;;;6.90;3.20;;;;;;;17.55;88.05;99909.41;5093038;28;20055;-75
2021/05/11 14:41:27;;;;;;;6.43;3.70;;;;;;;17.47;89.00;99911.38;5092910;28;20090;-75
2021/05/11 14:44:31;;;;;;;5.72;3.42;;;;;;;17.43;89.82;99916.31;5092855;28;20055;-76
2021/05/11 14:47:36;;;;;;;6.18;3.10;;;;;;;17.23;89.55;99915.22;5092527;28;20043;-76
2021/05/11 14:50:40;;;;;;;5.10;3.15;;;;;;;17.13;89.33;99911.13;5079948;28;20047;-76
2021/05/11 14:53:48;;;;;;;6.63;3.10;;;;;;;17.10;88.64;99916.91;5087455;28;20794;-77
2021/05/11 14:56:52;;;;;;;3.75;3.03;;;;;;;17.12;88.73;99910.28;5072715;28;20043;-75
2021/05/11 14:59:57;;;;;;;3.83;2.95;;;;;;;17.11;87.72;99913.19;5074567;28;20044;-75
2021/05/11 15:03:01;;;;;;;4.55;2.90;;;;;;;17.13;87.26;99911.97;5073448;28;20056;-76
2021/05/11 15:06:06;;;;;;;4.88;2.90;;;;;;;17.18;88.08;99916.81;5074338;28;20048;-75
2021/05/11 15:09:12;;;;;;;4.38;3.10;;;;;;;17.15;88.28;99912.63;5075579;28;20044;-76
2021/05/11 15:12:16;;;;;;;4.38;2.65;;;;;;;17.18;87.16;99914.13;5075712;28;20407;-76
2021/05/11 15:15:21;;;;;;;4.07;2.78;;;;;;;17.06;86.05;99919.16;5075618;28;20482;-75
2021/05/11 15:18:26;;;;;;;4.65;3.08;;;;;;;16.99;86.99;99923.63;5056344;28;20064;-76
2021/05/11 15:21:31;;;;;;;7.47;3.45;;;;;;;16.97;87.25;99925.69;5053715;28;20481;-75
2021/05/11 15:24:36;;;;;;;6.80;3.20;;;;;;;16.97;87.89;99932.97;5054504;28;20052;-76
2021/05/11 15:27:40;;;;;;;4.72;3.30;;;;;;;16.84;87.66;99929.03;5053655;28;20048;-77
2021/05/11 15:30:44;;;;;;;3.78;2.60;;;;;;;16.83;86.44;99926.53;5054632;28;20052;-75
2021/05/11 15:33:49;;;;;;;4.20;3.10;;;;;;;16.89;87.04;99912.22;5054074;28;20059;-76
2021/05/11 15:36:54;;;;;;;4.35;2.90;;;;;;;16.95;87.53;99916.06;5044768;28;20052;-76
2021/05/11 15:39:59;;;;;;;4.05;2.70;;;;;;;16.92;86.51;99928.13;5057042;28;20384;-76
2021/05/11 15:43:05;;;;;;;4.78;2.75;;;;;;;16.91;85.85;99923.75;5056416;28;20056;-76
2021/05/11 15:46:09;;;;;;;4.25;2.67;;;;;;;16.82;85.77;99930.25;5067521;28;20059;-77
2021/05/11 15:49:14;;;;;;;4.35;2.55;;;;;;;16.88;86.24;99937.66;5057067;28;20052;-79
2021/05/11 15:52:18;;;;;;;3.83;2.50;;;;;;;16.97;86.57;99924.84;5055910;28;20060;-76
2021/05/11 15:55:23;;;;;;;4.57;2.67;;;;;;;17.01;87.06;99913.44;5056596;28;20143;-76
2021/05/11 15:58:28;;;;;;;3.53;1.92;;;;;;;16.95;85.20;99910.63;5056810;28;20048;-76
2021/05/11 16:01:33;;;;;;;3.22;1.90;;;;;;;16.99;83.88;99904.66;5067173;28;20048;-78
2021/05/11 16:04:38;;;;;;;3.17;2.17;;;;;;;17.01;84.50;99909.91;5057439;28;20064;-78
2021/05/11 16:07:43;;;;;;;2.97;1.70;;;;;;;17.08;84.19;99906.25;5073862;28;20059;-75
2021/05/11 16:10:48;;;;;;;3.33;1.77;;;;;;;17.12;84.19;99896.72;5067423;28;20044;-74
2021/05/11 16:13:52;;;;;;;3.85;2.05;;;;;;;17.21;83.98;99895.56;5083861;28;20056;-77
2021/05/11 16:16:57;;;;;;;3.17;1.80;;;;;;;17.20;84.04;99893.91;5075297;28;20055;-75
2021/05/11 16:20:03;;;;;;;2.72;1.50;;;;;;;17.19;83.41;99889.50;5069779;28;20055;-74
2021/05/11 16:23:08;;;;;;;3.38;1.33;;;;;;;17.22;83.41;99889.13;5055701;28;20056;-75
2021/05/11 16:26:12;;;;;;;2.85;1.20;;;;;;;17.20;83.03;99883.06;5065783;28;20044;-75
2021/05/11 16:29:16;;;;;;;3.10;1.48;;;;;;;17.26;84.11;99882.28;5075541;28;20048;-74
2021/05/11 16:32:21;;;;;;;4.28;2.35;;;;;;;17.33;83.65;99866.13;5074450;28;20056;-75
2021/05/11 16:35:26;;;;;;;5.22;4.00;;;;;;;17.32;83.46;99854.41;5075071;28;20506;-76
2021/05/11 16:38:30;;;;;;;13.18;11.30;;;;;;;17.35;83.55;99864.91;5070843;28;20051;-75
2021/05/11 16:41:35;;;;;;;6.07;4.32;;;;;;;17.30;84.06;99872.75;5074667;28;20800;-74
2021/05/11 16:44:40;;;;;;;5.65;3.25;;;;;;;17.15;85.29;99865.66;5074893;28;20509;-75
2021/05/11 16:47:54;;;;;;;4.22;2.47;;;;;;;17.19;86.39;99866.97;5075247;28;20047;-75
2021/05/11 16:50:59;;;;;;;;;;;;;;;17.04;87.10;99860.69;5075556;28;20050;-75
2021/05/11 16:54:03;;;;;;;6.65;3.38;;;;;;;16.97;87.33;99862.47;5074349;28;19912;-74
2021/05/11 16:57:08;;;;;;;5.82;3.08;;;;;;;16.87;86.96;99850.06;5074894;28;20044;-74
2021/05/11 17:00:13;;;;;;;5.97;3.70;;;;;;;16.58;88.83;99839.22;5074654;28;20494;-73
2021/05/11 17:03:20;;;;;;;4.10;3.55;;;;;;;16.28;89.14;99841.00;5074992;28;20043;-74
2021/05/11 17:06:27;;;;;;;6.32;4.05;;;;;;;16.29;90.44;99834.53;5074131;28;20047;-76
2021/05/11 17:09:31;;;;;;;6.03;3.75;;;;;;;16.27;90.50;99842.03;5074443;28;20502;-75
2021/05/11 17:12:35;;;;;;;4.32;3.25;;;;;;;16.29;90.47;99829.13;5074754;28;20048;-77
2021/05/11 17:15:40;;;;;;;5.85;3.78;;;;;;;16.28;90.36;99829.31;5054438;28;20048;-73
2021/05/11 17:18:44;;;;;;;4.18;2.70;;;;;;;16.30;89.22;99819.13;5054661;28;20060;-74
2021/05/11 17:21:49;;;;;;;25.13;16.48;;;;;;;16.21;88.66;99823.81;5054449;28;20404;-76
2021/05/11 17:24:53;;;;;;;24.27;19.40;;;;;;;16.25;88.14;99816.16;5054467;28;20052;-73
2021/05/11 17:28:00;;;;;;;15.52;6.32;;;;;;;16.27;86.50;99828.47;5054502;28;20076;-75
2021/05/11 17:31:06;;;;;;;7.05;2.20;;;;;;;16.33;85.45;99826.91;5054081;28;20051;-74
2021/05/11 17:34:12;;;;;;;6.75;2.78;;;;;;;16.24;85.99;99828.03;5065923;28;20051;-74
2021/05/11 17:37:16;;;;;;;8.27;2.58;;;;;;;16.28;85.54;99832.03;5072419;28;20055;-73
2021/05/11 17:40:22;;;;;;;5.05;2.13;;;;;;;16.28;85.95;99832.88;5066958;28;20059;-75
2021/05/11 17:43:28;;;;;;;12.85;3.55;;;;;;;16.28;86.79;99842.88;5062433;28;20396;-73
2021/05/11 17:46:32;;;;;;;4.20;2.20;;;;;;;16.23;87.76;99840.72;5059418;28;20047;-73
2021/05/11 17:49:37;;;;;;;6.75;2.10;;;;;;;16.17;85.76;99835.19;5069336;28;20111;-76
2021/05/11 17:52:41;;;;;;;4.13;2.10;;;;;;;16.07;85.75;99835.41;5058663;28;20044;-75
2021/05/11 17:55:45;;;;;;;7.65;2.15;;;;;;;16.16;86.61;99833.50;5067674;28;20511;-76
2021/05/11 17:58:50;;;;;;;3.55;2.05;;;;;;;16.24;87.06;99828.84;5073936;28;20396;-76
2021/05/11 18:01:54;;;;;;;6.25;2.70;;;;;;;16.26;87.76;99826.81;5063665;28;20686;-75
2021/05/11 18:04:59;;;;;;;3.55;2.33;;;;;;;16.25;87.93;99824.28;5062769;28;20503;-75
2021/05/11 18:08:05;;;;;;;6.97;2.78;;;;;;;16.22;88.32;99832.75;5057940;28;20519;-76
2021/05/11 18:11:10;;;;;;;6.60;3.63;;;;;;;16.14;89.23;99832.84;5053065;28;20127;-77
2021/05/11 18:14:14;;;;;;;5.47;3.38;;;;;;;16.11;90.36;99833.22;5053334;28;20056;-75